FLUGWETTER MÜNCHEN AIRPORT

[source: ADDS]
METAR
EDDM 260320Z VRB02KT CAVOK 15/14 Q1016 NOSIG =
TAF
TAF EDDM 252300Z 2600/2706 22005KT 9999 SCT045 BECMG 2618/2620 06003KT BECMG 2702/2704 24008KT TEMPO 2704/2706 SHRA SCT050TCU =
SR / SS: 03:15 / 19:19 UTC (Tag 2017-06-26)

QR-Code dieser Seite

QR-Code dieser Seite